sensor_id;sensor_type;location;lat;lon;timestamp;pressure;altitude;pressure_sealevel;temperature;humidity
20971;BME280;10644;48.834;10.088;2023-04-21T00:00:58;96344.06;;;10.78;63.08
20971;BME280;10644;48.834;10.088;2023-04-21T00:03:25;96334.81;;;10.75;63.25
20971;BME280;10644;48.834;10.088;2023-04-21T00:05:54;96334.44;;;10.81;63.62
20971;BME280;10644;48.834;10.088;2023-04-21T00:08:20;96346.25;;;10.84;63.47
20971;BME280;10644;48.834;10.088;2023-04-21T00:10:46;96349.19;;;10.92;63.14
20971;BME280;10644;48.834;10.088;2023-04-21T00:13:11;96343.97;;;10.79;63.15
20971;BME280;10644;48.834;10.088;2023-04-21T00:15:37;96342.88;;;10.83;63.20
20971;BME280;10644;48.834;10.088;2023-04-21T00:18:02;96341.94;;;10.84;63.02
20971;BME280;10644;48.834;10.088;2023-04-21T00:20:28;96339.56;;;10.81;63.05
20971;BME280;10644;48.834;10.088;2023-04-21T00:22:55;96346.44;;;10.81;63.04
20971;BME280;10644;48.834;10.088;2023-04-21T00:25:21;96356.03;;;10.63;62.82
20971;BME280;10644;48.834;10.088;2023-04-21T00:27:47;96347.63;;;10.61;63.13
20971;BME280;10644;48.834;10.088;2023-04-21T00:30:12;96358.31;;;10.68;63.16
20971;BME280;10644;48.834;10.088;2023-04-21T00:32:40;96353.84;;;10.71;63.23
20971;BME280;10644;48.834;10.088;2023-04-21T00:35:08;96335.56;;;10.63;63.13
20971;BME280;10644;48.834;10.088;2023-04-21T00:37:34;96347.63;;;10.75;63.03
20971;BME280;10644;48.834;10.088;2023-04-21T00:39:59;96345.31;;;10.85;63.43
20971;BME280;10644;48.834;10.088;2023-04-21T00:42:25;96339.19;;;10.87;62.92
20971;BME280;10644;48.834;10.088;2023-04-21T00:44:51;96332.97;;;10.91;63.37
20971;BME280;10644;48.834;10.088;2023-04-21T00:47:17;96328.38;;;10.96;62.88
20971;BME280;10644;48.834;10.088;2023-04-21T00:49:43;96324.75;;;10.86;62.67
20971;BME280;10644;48.834;10.088;2023-04-21T00:52:08;96329.31;;;10.81;63.14
20971;BME280;10644;48.834;10.088;2023-04-21T00:54:34;96332.63;;;10.83;63.17
20971;BME280;10644;48.834;10.088;2023-04-21T00:57:00;96317.81;;;10.74;63.19
20971;BME280;10644;48.834;10.088;2023-04-21T00:59:28;96312.41;;;10.65;63.91
20971;BME280;10644;48.834;10.088;2023-04-21T01:01:53;96299.06;;;10.60;64.04
20971;BME280;10644;48.834;10.088;2023-04-21T01:04:28;96292.09;;;10.62;64.31
20971;BME280;10644;48.834;10.088;2023-04-21T01:07:01;96287.44;;;10.68;64.11
20971;BME280;10644;48.834;10.088;2023-04-21T01:09:27;96284.88;;;10.54;64.55
20971;BME280;10644;48.834;10.088;2023-04-21T01:12:06;96282.88;;;10.31;65.24
20971;BME280;10644;48.834;10.088;2023-04-21T01:14:32;96281.88;;;10.34;65.29
20971;BME280;10644;48.834;10.088;2023-04-21T01:16:57;96298.94;;;10.19;66.11
20971;BME280;10644;48.834;10.088;2023-04-21T01:19:24;96281.78;;;10.21;65.60
20971;BME280;10644;48.834;10.088;2023-04-21T01:21:50;96277.38;;;10.23;65.79
20971;BME280;10644;48.834;10.088;2023-04-21T01:24:22;96287.19;;;9.87;67.07
20971;BME280;10644;48.834;10.088;2023-04-21T01:26:48;96291.06;;;9.65;68.35
20971;BME280;10644;48.834;10.088;2023-04-21T01:29:16;96285.31;;;9.75;67.95
20971;BME280;10644;48.834;10.088;2023-04-21T01:31:42;96283.81;;;10.01;67.74
20971;BME280;10644;48.834;10.088;2023-04-21T01:34:07;96284.16;;;9.95;67.39
20971;BME280;10644;48.834;10.088;2023-04-21T01:36:35;96281.53;;;9.96;67.95
20971;BME280;10644;48.834;10.088;2023-04-21T01:39:00;96273.72;;;10.13;67.13
20971;BME280;10644;48.834;10.088;2023-04-21T01:41:26;96287.44;;;10.26;66.96
20971;BME280;10644;48.834;10.088;2023-04-21T01:43:51;96276.66;;;10.21;67.08
20971;BME280;10644;48.834;10.088;2023-04-21T01:46:20;96285.44;;;10.17;67.01
20971;BME280;10644;48.834;10.088;2023-04-21T01:48:45;96296.59;;;10.30;66.37
20971;BME280;10644;48.834;10.088;2023-04-21T01:51:11;96286.53;;;10.41;66.46
20971;BME280;10644;48.834;10.088;2023-04-21T01:53:38;96285.59;;;10.42;66.07
20971;BME280;10644;48.834;10.088;2023-04-21T01:56:04;96286.25;;;10.46;65.79
20971;BME280;10644;48.834;10.088;2023-04-21T01:58:29;96276.19;;;10.57;65.96
20971;BME280;10644;48.834;10.088;2023-04-21T02:00:55;96277.31;;;10.53;65.75
20971;BME280;10644;48.834;10.088;2023-04-21T02:03:20;96277.22;;;10.40;65.83
20971;BME280;10644;48.834;10.088;2023-04-21T02:05:45;96277.47;;;10.50;65.58
20971;BME280;10644;48.834;10.088;2023-04-21T02:08:11;96271.00;;;10.44;65.95
20971;BME280;10644;48.834;10.088;2023-04-21T02:10:39;96263.13;;;10.47;66.22
20971;BME280;10644;48.834;10.088;2023-04-21T02:13:05;96262.75;;;10.53;65.85
20971;BME280;10644;48.834;10.088;2023-04-21T02:15:30;96255.91;;;10.54;65.96
20971;BME280;10644;48.834;10.088;2023-04-21T02:17:55;96253.59;;;10.63;65.68
20971;BME280;10644;48.834;10.088;2023-04-21T02:20:21;96264.00;;;10.74;65.37
20971;BME280;10644;48.834;10.088;2023-04-21T02:22:46;96252.47;;;10.81;65.18
20971;BME280;10644;48.834;10.088;2023-04-21T02:25:12;96255.56;;;10.86;65.11
20971;BME280;10644;48.834;10.088;2023-04-21T02:27:37;96248.59;;;10.88;64.64
20971;BME280;10644;48.834;10.088;2023-04-21T02:30:02;96248.41;;;10.91;64.45
20971;BME280;10644;48.834;10.088;2023-04-21T02:32:28;96246.31;;;10.98;64.19
20971;BME280;10644;48.834;10.088;2023-04-21T02:34:56;96230.47;;;10.91;64.51
20971;BME280;10644;48.834;10.088;2023-04-21T02:37:24;96230.19;;;10.96;64.60
20971;BME280;10644;48.834;10.088;2023-04-21T02:39:53;96245.09;;;11.03;64.53
20971;BME280;10644;48.834;10.088;2023-04-21T02:42:31;96231.09;;;10.95;64.22
20971;BME280;10644;48.834;10.088;2023-04-21T02:47:41;96214.41;;;11.02;64.18
20971;BME280;10644;48.834;10.088;2023-04-21T02:50:12;96221.53;;;11.11;64.56
20971;BME280;10644;48.834;10.088;2023-04-21T02:52:37;96222.63;;;10.94;64.79
20971;BME280;10644;48.834;10.088;2023-04-21T02:55:03;96234.56;;;10.67;65.17
20971;BME280;10644;48.834;10.088;2023-04-21T02:57:31;96228.31;;;10.71;65.51
20971;BME280;10644;48.834;10.088;2023-04-21T02:59:56;96232.72;;;10.83;65.44
20971;BME280;10644;48.834;10.088;2023-04-21T03:02:22;96246.03;;;10.88;64.93
20971;BME280;10644;48.834;10.088;2023-04-21T03:04:47;96233.88;;;10.92;64.94
20971;BME280;10644;48.834;10.088;2023-04-21T03:07:12;96247.41;;;10.94;64.54
20971;BME280;10644;48.834;10.088;2023-04-21T03:09:39;96251.69;;;10.93;64.74
20971;BME280;10644;48.834;10.088;2023-04-21T03:12:04;96241.28;;;10.96;64.86
20971;BME280;10644;48.834;10.088;2023-04-21T03:14:30;96231.66;;;11.00;64.54
20971;BME280;10644;48.834;10.088;2023-04-21T03:16:55;96235.38;;;11.08;64.21
20971;BME280;10644;48.834;10.088;2023-04-21T03:19:20;96236.22;;;11.09;64.66
20971;BME280;10644;48.834;10.088;2023-04-21T03:21:46;96232.09;;;11.06;64.68
20971;BME280;10644;48.834;10.088;2023-04-21T03:24:11;96227.53;;;10.97;64.56
20971;BME280;10644;48.834;10.088;2023-04-21T03:26:38;96244.91;;;11.06;64.95
20971;BME280;10644;48.834;10.088;2023-04-21T03:29:05;96231.47;;;11.03;64.47
20971;BME280;10644;48.834;10.088;2023-04-21T03:31:33;96236.47;;;11.04;64.50
20971;BME280;10644;48.834;10.088;2023-04-21T03:33:59;96224.19;;;10.83;64.94
20971;BME280;10644;48.834;10.088;2023-04-21T03:36:24;96239.81;;;10.92;64.90
20971;BME280;10644;48.834;10.088;2023-04-21T03:38:49;96247.66;;;11.03;65.18
20971;BME280;10644;48.834;10.088;2023-04-21T03:41:15;96237.41;;;11.03;64.48
20971;BME280;10644;48.834;10.088;2023-04-21T03:43:40;96240.31;;;11.11;64.73
20971;BME280;10644;48.834;10.088;2023-04-21T03:46:05;96239.28;;;11.14;64.28
20971;BME280;10644;48.834;10.088;2023-04-21T03:48:31;96230.88;;;11.12;64.40
20971;BME280;10644;48.834;10.088;2023-04-21T03:50:56;96234.66;;;11.06;64.44
20971;BME280;10644;48.834;10.088;2023-04-21T03:53:22;96227.75;;;10.94;64.18
20971;BME280;10644;48.834;10.088;2023-04-21T03:55:49;96243.28;;;10.91;64.45
20971;BME280;10644;48.834;10.088;2023-04-21T03:58:15;96243.91;;;10.95;64.66
20971;BME280;10644;48.834;10.088;2023-04-21T04:00:40;96244.94;;;10.92;64.22
20971;BME280;10644;48.834;10.088;2023-04-21T04:03:06;96242.41;;;10.78;64.55
20971;BME280;10644;48.834;10.088;2023-04-21T04:05:31;96251.91;;;10.76;64.62
20971;BME280;10644;48.834;10.088;2023-04-21T04:07:57;96246.00;;;10.76;64.88
20971;BME280;10644;48.834;10.088;2023-04-21T04:10:22;96250.00;;;10.80;64.35
20971;BME280;10644;48.834;10.088;2023-04-21T04:12:48;96259.44;;;10.79;64.44
20971;BME280;10644;48.834;10.088;2023-04-21T04:15:13;96261.81;;;10.68;64.11
20971;BME280;10644;48.834;10.088;2023-04-21T04:17:39;96257.63;;;10.53;64.26
20971;BME280;10644;48.834;10.088;2023-04-21T04:20:06;96257.72;;;10.52;63.76
20971;BME280;10644;48.834;10.088;2023-04-21T04:22:32;96267.69;;;10.56;63.93
20971;BME280;10644;48.834;10.088;2023-04-21T04:24:58;96267.41;;;10.61;63.69
20971;BME280;10644;48.834;10.088;2023-04-21T04:27:25;96271.19;;;10.55;63.01
20971;BME280;10644;48.834;10.088;2023-04-21T04:29:51;96272.34;;;10.50;63.24
20971;BME280;10644;48.834;10.088;2023-04-21T04:32:19;96280.88;;;10.50;63.23
20971;BME280;10644;48.834;10.088;2023-04-21T04:34:44;96286.91;;;10.49;62.95
20971;BME280;10644;48.834;10.088;2023-04-21T04:37:10;96290.56;;;10.45;63.60
20971;BME280;10644;48.834;10.088;2023-04-21T04:39:37;96287.09;;;10.46;63.85
20971;BME280;10644;48.834;10.088;2023-04-21T04:42:07;96278.19;;;10.52;63.92
20971;BME280;10644;48.834;10.088;2023-04-21T04:44:34;96273.53;;;10.58;63.22
20971;BME280;10644;48.834;10.088;2023-04-21T04:47:02;96277.75;;;10.59;63.29
20971;BME280;10644;48.834;10.088;2023-04-21T04:49:28;96265.31;;;10.53;62.99
20971;BME280;10644;48.834;10.088;2023-04-21T04:51:53;96283.50;;;10.63;63.43
20971;BME280;10644;48.834;10.088;2023-04-21T04:54:19;96282.06;;;10.59;63.31
20971;BME280;10644;48.834;10.088;2023-04-21T04:56:44;96282.38;;;9.97;63.47
20971;BME280;10644;48.834;10.088;2023-04-21T04:59:10;96287.63;;;9.94;64.00
20971;BME280;10644;48.834;10.088;2023-04-21T05:01:36;96296.38;;;10.05;64.09
20971;BME280;10644;48.834;10.088;2023-04-21T05:04:02;96304.63;;;10.10;63.71
20971;BME280;10644;48.834;10.088;2023-04-21T05:06:28;96309.03;;;10.22;63.57
20971;BME280;10644;48.834;10.088;2023-04-21T05:08:54;96315.59;;;10.26;63.54
20971;BME280;10644;48.834;10.088;2023-04-21T05:11:20;96313.22;;;10.23;63.53
20971;BME280;10644;48.834;10.088;2023-04-21T05:13:50;96308.03;;;10.25;64.33
20971;BME280;10644;48.834;10.088;2023-04-21T05:16:16;96300.91;;;10.00;64.25
20971;BME280;10644;48.834;10.088;2023-04-21T05:18:41;96305.69;;;10.06;64.56
20971;BME280;10644;48.834;10.088;2023-04-21T05:21:06;96301.34;;;9.93;64.69
20971;BME280;10644;48.834;10.088;2023-04-21T05:23:34;96315.69;;;9.95;64.97
20971;BME280;10644;48.834;10.088;2023-04-21T05:25:59;96333.53;;;9.97;64.99
20971;BME280;10644;48.834;10.088;2023-04-21T05:28:25;96331.25;;;9.77;64.84
20971;BME280;10644;48.834;10.088;2023-04-21T05:30:54;96328.78;;;9.75;65.27
20971;BME280;10644;48.834;10.088;2023-04-21T05:33:19;96328.53;;;9.80;64.49
20971;BME280;10644;48.834;10.088;2023-04-21T05:35:45;96335.88;;;9.70;65.07
20971;BME280;10644;48.834;10.088;2023-04-21T05:38:13;96338.25;;;9.59;65.16
20971;BME280;10644;48.834;10.088;2023-04-21T05:40:38;96336.91;;;9.68;65.94
20971;BME280;10644;48.834;10.088;2023-04-21T05:43:06;96331.25;;;9.77;65.49
20971;BME280;10644;48.834;10.088;2023-04-21T05:45:31;96323.31;;;9.81;65.50
20971;BME280;10644;48.834;10.088;2023-04-21T05:47:56;96330.75;;;9.86;65.88
20971;BME280;10644;48.834;10.088;2023-04-21T05:50:22;96328.75;;;9.91;65.71
20971;BME280;10644;48.834;10.088;2023-04-21T05:52:49;96312.41;;;9.93;65.88
20971;BME280;10644;48.834;10.088;2023-04-21T05:55:14;96320.63;;;9.98;65.75
20971;BME280;10644;48.834;10.088;2023-04-21T05:57:40;96313.09;;;10.11;65.56
20971;BME280;10644;48.834;10.088;2023-04-21T06:00:06;96318.13;;;10.12;66.12
20971;BME280;10644;48.834;10.088;2023-04-21T06:02:31;96312.44;;;9.78;67.13
20971;BME280;10644;48.834;10.088;2023-04-21T06:04:57;96307.25;;;9.79;67.80
20971;BME280;10644;48.834;10.088;2023-04-21T06:07:22;96304.75;;;9.64;69.25
20971;BME280;10644;48.834;10.088;2023-04-21T06:09:51;96295.09;;;9.53;70.12
20971;BME280;10644;48.834;10.088;2023-04-21T06:12:16;96297.22;;;9.76;69.66
20971;BME280;10644;48.834;10.088;2023-04-21T06:14:42;96300.34;;;9.95;69.79
20971;BME280;10644;48.834;10.088;2023-04-21T06:17:07;96302.16;;;10.09;69.52
20971;BME280;10644;48.834;10.088;2023-04-21T06:19:36;96307.91;;;10.26;69.25
20971;BME280;10644;48.834;10.088;2023-04-21T06:22:02;96305.34;;;10.26;69.26
20971;BME280;10644;48.834;10.088;2023-04-21T06:24:31;96317.97;;;10.43;68.92
20971;BME280;10644;48.834;10.088;2023-04-21T06:26:56;96304.19;;;10.60;68.63
20971;BME280;10644;48.834;10.088;2023-04-21T06:29:24;96302.78;;;10.82;67.71
20971;BME280;10644;48.834;10.088;2023-04-21T06:31:49;96298.56;;;10.81;67.98
20971;BME280;10644;48.834;10.088;2023-04-21T06:34:17;96299.31;;;10.83;67.99
20971;BME280;10644;48.834;10.088;2023-04-21T06:36:44;96301.31;;;10.92;67.94
20971;BME280;10644;48.834;10.088;2023-04-21T06:39:09;96295.53;;;10.89;67.94
20971;BME280;10644;48.834;10.088;2023-04-21T06:41:35;96282.59;;;11.04;68.13
20971;BME280;10644;48.834;10.088;2023-04-21T06:44:00;96280.72;;;11.20;68.08
20971;BME280;10644;48.834;10.088;2023-04-21T06:46:25;96263.94;;;11.29;67.88
20971;BME280;10644;48.834;10.088;2023-04-21T06:48:53;96266.06;;;11.49;67.72
20971;BME280;10644;48.834;10.088;2023-04-21T06:51:18;96274.91;;;11.57;67.29
20971;BME280;10644;48.834;10.088;2023-04-21T06:53:44;96255.66;;;11.64;67.14
20971;BME280;10644;48.834;10.088;2023-04-21T06:56:09;96259.75;;;11.01;69.68
20971;BME280;10644;48.834;10.088;2023-04-21T06:58:35;96259.22;;;10.82;71.06
20971;BME280;10644;48.834;10.088;2023-04-21T07:01:02;96265.41;;;10.66;71.58
20971;BME280;10644;48.834;10.088;2023-04-21T07:03:28;96266.19;;;10.80;71.35
20971;BME280;10644;48.834;10.088;2023-04-21T07:05:53;96254.38;;;11.18;70.84
20971;BME280;10644;48.834;10.088;2023-04-21T07:08:18;96251.69;;;11.46;70.12
20971;BME280;10644;48.834;10.088;2023-04-21T07:10:44;96252.94;;;11.53;69.95
20971;BME280;10644;48.834;10.088;2023-04-21T07:13:09;96244.41;;;11.79;68.41
20971;BME280;10644;48.834;10.088;2023-04-21T07:15:34;96247.91;;;12.03;68.21
20971;BME280;10644;48.834;10.088;2023-04-21T07:18:02;96250.09;;;12.22;67.33
20971;BME280;10644;48.834;10.088;2023-04-21T07:20:28;96248.94;;;12.01;66.90
20971;BME280;10644;48.834;10.088;2023-04-21T07:22:56;96245.03;;;11.95;67.29
20971;BME280;10644;48.834;10.088;2023-04-21T07:25:41;96241.13;;;11.65;68.10
20971;BME280;10644;48.834;10.088;2023-04-21T07:28:07;96254.59;;;11.54;69.06
20971;BME280;10644;48.834;10.088;2023-04-21T07:30:32;96235.19;;;11.77;68.90
20971;BME280;10644;48.834;10.088;2023-04-21T07:32:58;96243.59;;;12.04;68.32
20971;BME280;10644;48.834;10.088;2023-04-21T07:35:24;96236.09;;;11.88;67.71
20971;BME280;10644;48.834;10.088;2023-04-21T07:37:50;96230.75;;;12.04;68.32
20971;BME280;10644;48.834;10.088;2023-04-21T07:40:15;96230.16;;;12.13;67.85
20971;BME280;10644;48.834;10.088;2023-04-21T07:42:41;96229.63;;;12.20;67.69
20971;BME280;10644;48.834;10.088;2023-04-21T07:45:08;96222.34;;;12.27;66.75
20971;BME280;10644;48.834;10.088;2023-04-21T07:47:34;96233.94;;;12.32;67.22
20971;BME280;10644;48.834;10.088;2023-04-21T07:49:59;96234.34;;;12.39;66.99
20971;BME280;10644;48.834;10.088;2023-04-21T07:52:25;96230.88;;;12.02;67.75
20971;BME280;10644;48.834;10.088;2023-04-21T07:54:50;96238.59;;;12.02;68.19
20971;BME280;10644;48.834;10.088;2023-04-21T07:57:16;96237.75;;;12.14;67.95
20971;BME280;10644;48.834;10.088;2023-04-21T07:59:42;96238.13;;;12.33;67.10
20971;BME280;10644;48.834;10.088;2023-04-21T08:02:07;96245.25;;;11.92;68.31
20971;BME280;10644;48.834;10.088;2023-04-21T08:04:33;96238.88;;;11.85;69.18
20971;BME280;10644;48.834;10.088;2023-04-21T08:06:58;96228.41;;;12.13;68.62
20971;BME280;10644;48.834;10.088;2023-04-21T08:09:24;96237.91;;;12.49;67.25
20971;BME280;10644;48.834;10.088;2023-04-21T08:11:49;96248.75;;;12.77;67.07
20971;BME280;10644;48.834;10.088;2023-04-21T08:14:15;96238.06;;;12.96;66.25
20971;BME280;10644;48.834;10.088;2023-04-21T08:16:40;96236.97;;;13.11;66.76
20971;BME280;10644;48.834;10.088;2023-04-21T08:19:07;96231.69;;;13.12;65.83
20971;BME280;10644;48.834;10.088;2023-04-21T08:21:33;96235.72;;;12.80;67.16
20971;BME280;10644;48.834;10.088;2023-04-21T08:23:59;96226.06;;;12.59;67.62
20971;BME280;10644;48.834;10.088;2023-04-21T08:26:24;96228.56;;;12.60;67.97
20971;BME280;10644;48.834;10.088;2023-04-21T08:28:50;96225.00;;;12.86;67.51
20971;BME280;10644;48.834;10.088;2023-04-21T08:31:19;96224.66;;;12.91;66.62
20971;BME280;10644;48.834;10.088;2023-04-21T08:33:45;96231.09;;;13.09;66.36
20971;BME280;10644;48.834;10.088;2023-04-21T08:36:10;96221.69;;;12.97;67.65
20971;BME280;10644;48.834;10.088;2023-04-21T08:38:45;96218.34;;;13.07;66.23
20971;BME280;10644;48.834;10.088;2023-04-21T08:41:10;96219.69;;;13.36;64.96
20971;BME280;10644;48.834;10.088;2023-04-21T08:43:36;96224.69;;;13.38;65.30
20971;BME280;10644;48.834;10.088;2023-04-21T08:46:06;96218.94;;;13.34;65.42
20971;BME280;10644;48.834;10.088;2023-04-21T08:48:36;96226.63;;;13.23;66.20
20971;BME280;10644;48.834;10.088;2023-04-21T08:51:04;96228.25;;;13.24;66.23
20971;BME280;10644;48.834;10.088;2023-04-21T08:53:30;96215.13;;;13.40;65.01
20971;BME280;10644;48.834;10.088;2023-04-21T08:55:56;96243.16;;;13.66;64.34
20971;BME280;10644;48.834;10.088;2023-04-21T08:58:21;96227.97;;;13.74;64.45
20971;BME280;10644;48.834;10.088;2023-04-21T09:00:48;96226.38;;;13.84;64.15
20971;BME280;10644;48.834;10.088;2023-04-21T09:03:20;96240.34;;;14.03;63.40
20971;BME280;10644;48.834;10.088;2023-04-21T09:06:13;96239.81;;;14.22;63.28
20971;BME280;10644;48.834;10.088;2023-04-21T09:08:43;96239.81;;;14.22;63.26
20971;BME280;10644;48.834;10.088;2023-04-21T09:11:16;96231.72;;;14.37;63.06
20971;BME280;10644;48.834;10.088;2023-04-21T09:13:42;96239.09;;;14.20;63.79
20971;BME280;10644;48.834;10.088;2023-04-21T09:16:18;96234.44;;;14.47;62.58
20971;BME280;10644;48.834;10.088;2023-04-21T09:18:45;96232.69;;;14.47;62.67
20971;BME280;10644;48.834;10.088;2023-04-21T09:21:12;96240.53;;;14.57;63.81
20971;BME280;10644;48.834;10.088;2023-04-21T09:23:40;96246.13;;;14.84;63.68
20971;BME280;10644;48.834;10.088;2023-04-21T09:26:06;96230.16;;;15.01;61.89
20971;BME280;10644;48.834;10.088;2023-04-21T09:28:31;96232.94;;;15.09;61.48
20971;BME280;10644;48.834;10.088;2023-04-21T09:31:31;96229.88;;;15.15;61.32
20971;BME280;10644;48.834;10.088;2023-04-21T09:33:59;96223.22;;;15.01;60.76
20971;BME280;10644;48.834;10.088;2023-04-21T09:36:34;96223.28;;;14.79;60.82
20971;BME280;10644;48.834;10.088;2023-04-21T09:39:01;96233.25;;;14.51;61.61
20971;BME280;10644;48.834;10.088;2023-04-21T09:41:27;96225.63;;;14.38;61.79
20971;BME280;10644;48.834;10.088;2023-04-21T09:43:52;96232.91;;;14.44;61.62
20971;BME280;10644;48.834;10.088;2023-04-21T09:46:20;96229.53;;;14.55;62.18
20971;BME280;10644;48.834;10.088;2023-04-21T09:48:47;96228.94;;;14.62;61.61
20971;BME280;10644;48.834;10.088;2023-04-21T09:51:15;96228.22;;;14.60;61.45
20971;BME280;10644;48.834;10.088;2023-04-21T09:53:41;96235.38;;;14.46;61.48
20971;BME280;10644;48.834;10.088;2023-04-21T09:56:14;96218.28;;;14.45;61.83
20971;BME280;10644;48.834;10.088;2023-04-21T09:58:46;96243.56;;;14.51;61.86
20971;BME280;10644;48.834;10.088;2023-04-21T10:01:13;96225.53;;;14.62;61.32
20971;BME280;10644;48.834;10.088;2023-04-21T10:03:40;96227.84;;;14.76;61.25
20971;BME280;10644;48.834;10.088;2023-04-21T10:06:06;96231.91;;;15.00;60.63
20971;BME280;10644;48.834;10.088;2023-04-21T10:08:35;96216.34;;;14.91;59.96
20971;BME280;10644;48.834;10.088;2023-04-21T10:11:02;96224.41;;;15.08;59.97
20971;BME280;10644;48.834;10.088;2023-04-21T10:13:30;96223.69;;;15.49;58.75
20971;BME280;10644;48.834;10.088;2023-04-21T10:16:07;96220.97;;;15.19;59.12
20971;BME280;10644;48.834;10.088;2023-04-21T10:18:42;96219.41;;;15.27;59.77
20971;BME280;10644;48.834;10.088;2023-04-21T10:21:17;96204.50;;;15.83;58.32
20971;BME280;10644;48.834;10.088;2023-04-21T10:26:32;96208.03;;;16.23;57.08
20971;BME280;10644;48.834;10.088;2023-04-21T10:31:31;96210.53;;;16.64;56.33
20971;BME280;10644;48.834;10.088;2023-04-21T10:37:17;96195.88;;;16.74;54.67
20971;BME280;10644;48.834;10.088;2023-04-21T10:39:28;96184.47;;;16.86;54.41
20971;BME280;10644;48.834;10.088;2023-04-21T10:41:56;96175.16;;;16.74;55.06
20971;BME280;10644;48.834;10.088;2023-04-21T10:44:22;96182.72;;;16.96;54.69
20971;BME280;10644;48.834;10.088;2023-04-21T10:46:50;96184.22;;;17.27;54.12
20971;BME280;10644;48.834;10.088;2023-04-21T10:54:28;96202.53;;;17.63;52.15
20971;BME280;10644;48.834;10.088;2023-04-21T10:56:57;96196.50;;;17.82;52.19
20971;BME280;10644;48.834;10.088;2023-04-21T10:59:24;96205.84;;;18.21;51.17
20971;BME280;10644;48.834;10.088;2023-04-21T11:01:50;96190.81;;;18.34;51.04
20971;BME280;10644;48.834;10.088;2023-04-21T11:04:17;96184.56;;;18.63;50.37
20971;BME280;10644;48.834;10.088;2023-04-21T11:09:18;96185.47;;;18.99;49.91
20971;BME280;10644;48.834;10.088;2023-04-21T11:11:43;96176.00;;;19.25;49.94
20971;BME280;10644;48.834;10.088;2023-04-21T11:14:09;96175.22;;;19.15;48.80
20971;BME280;10644;48.834;10.088;2023-04-21T11:16:34;96159.44;;;19.08;49.42
20971;BME280;10644;48.834;10.088;2023-04-21T11:19:01;96160.22;;;19.09;49.47
20971;BME280;10644;48.834;10.088;2023-04-21T11:21:30;96168.59;;;19.30;49.26
20971;BME280;10644;48.834;10.088;2023-04-21T11:23:58;96159.38;;;19.53;49.13
20971;BME280;10644;48.834;10.088;2023-04-21T11:26:32;96173.47;;;19.68;47.80
20971;BME280;10644;48.834;10.088;2023-04-21T11:29:05;96147.91;;;19.38;48.54
20971;BME280;10644;48.834;10.088;2023-04-21T11:31:31;96153.50;;;19.33;48.67
20971;BME280;10644;48.834;10.088;2023-04-21T11:34:01;96149.41;;;19.13;49.36
20971;BME280;10644;48.834;10.088;2023-04-21T11:36:35;96138.94;;;19.40;49.00
20971;BME280;10644;48.834;10.088;2023-04-21T11:39:07;96140.41;;;19.08;48.94
20971;BME280;10644;48.834;10.088;2023-04-21T11:41:38;96139.34;;;19.28;49.08
20971;BME280;10644;48.834;10.088;2023-04-21T11:44:23;96148.63;;;19.30;48.54
20971;BME280;10644;48.834;10.088;2023-04-21T11:47:12;96138.41;;;19.72;48.65
20971;BME280;10644;48.834;10.088;2023-04-21T11:49:51;96157.09;;;19.32;48.04
20971;BME280;10644;48.834;10.088;2023-04-21T11:52:25;96143.44;;;19.73;47.81
20971;BME280;10644;48.834;10.088;2023-04-21T11:57:26;96143.91;;;19.94;47.80
20971;BME280;10644;48.834;10.088;2023-04-21T11:59:52;96136.56;;;20.41;46.65
20971;BME280;10644;48.834;10.088;2023-04-21T12:02:23;96150.66;;;20.72;45.53
20971;BME280;10644;48.834;10.088;2023-04-21T12:05:05;96155.13;;;20.87;46.11
20971;BME280;10644;48.834;10.088;2023-04-21T12:07:32;96145.41;;;20.97;44.96
20971;BME280;10644;48.834;10.088;2023-04-21T12:10:00;96145.41;;;20.89;45.16
20971;BME280;10644;48.834;10.088;2023-04-21T12:12:26;96150.81;;;21.04;44.76
20971;BME280;10644;48.834;10.088;2023-04-21T12:14:52;96149.22;;;21.27;44.36
20971;BME280;10644;48.834;10.088;2023-04-21T12:17:18;96139.63;;;21.35;43.19
20971;BME280;10644;48.834;10.088;2023-04-21T12:19:44;96150.22;;;21.50;43.49
20971;BME280;10644;48.834;10.088;2023-04-21T12:22:15;96138.16;;;21.57;44.47
20971;BME280;10644;48.834;10.088;2023-04-21T12:24:42;96136.38;;;21.57;43.61
20971;BME280;10644;48.834;10.088;2023-04-21T12:27:08;96140.72;;;21.09;43.99
20971;BME280;10644;48.834;10.088;2023-04-21T12:29:33;96137.50;;;21.39;42.93
20971;BME280;10644;48.834;10.088;2023-04-21T12:32:03;96128.38;;;21.67;43.76
20971;BME280;10644;48.834;10.088;2023-04-21T12:34:29;96131.69;;;21.69;43.55
20971;BME280;10644;48.834;10.088;2023-04-21T12:36:54;96129.69;;;21.95;42.72
20971;BME280;10644;48.834;10.088;2023-04-21T12:39:21;96127.06;;;21.55;42.60
20971;BME280;10644;48.834;10.088;2023-04-21T12:41:50;96121.72;;;21.72;42.59
20971;BME280;10644;48.834;10.088;2023-04-21T12:44:15;96115.50;;;21.81;42.56
20971;BME280;10644;48.834;10.088;2023-04-21T12:46:41;96111.22;;;22.04;42.49
20971;BME280;10644;48.834;10.088;2023-04-21T12:49:06;96115.69;;;21.72;41.71
20971;BME280;10644;48.834;10.088;2023-04-21T12:51:33;96109.16;;;21.84;41.52
20971;BME280;10644;48.834;10.088;2023-04-21T12:53:58;96121.25;;;21.69;41.69
20971;BME280;10644;48.834;10.088;2023-04-21T12:56:24;96115.19;;;21.76;42.24
20971;BME280;10644;48.834;10.088;2023-04-21T12:58:50;96102.78;;;21.94;42.37
20971;BME280;10644;48.834;10.088;2023-04-21T13:01:15;96104.28;;;21.81;42.34
20971;BME280;10644;48.834;10.088;2023-04-21T13:03:41;96114.81;;;22.03;42.00
20971;BME280;10644;48.834;10.088;2023-04-21T13:06:07;96107.78;;;22.12;41.72
20971;BME280;10644;48.834;10.088;2023-04-21T13:08:33;96116.16;;;21.91;41.59
20971;BME280;10644;48.834;10.088;2023-04-21T13:11:01;96106.16;;;22.11;41.29